createdAt,value
2023-04-01T00:00:04.124Z,93.15
2023-04-01T00:01:04.252Z,93.30
2023-04-01T00:02:04.334Z,93.29
2023-04-01T00:03:05.204Z,93.33
2023-04-01T00:04:04.652Z,93.41
2023-04-01T00:05:04.777Z,93.44
2023-04-01T00:06:04.797Z,93.24
2023-04-01T00:07:04.907Z,93.58
2023-04-01T00:08:05.094Z,93.54
2023-04-01T00:09:05.158Z,93.54
2023-04-01T00:10:05.320Z,93.45
2023-04-01T00:11:05.364Z,93.29
2023-04-01T00:12:05.480Z,93.49
2023-04-01T00:13:05.600Z,93.50
2023-04-01T00:14:05.719Z,93.56
2023-04-01T00:15:05.870Z,93.62
2023-04-01T00:16:13.855Z,93.66
2023-04-01T00:17:07.121Z,93.57
2023-04-01T00:18:06.217Z,93.60
2023-04-01T00:19:06.296Z,93.77
2023-04-01T00:20:06.372Z,93.85
2023-04-01T00:21:06.493Z,93.86
2023-04-01T00:22:06.582Z,93.69
2023-04-01T00:23:06.781Z,93.64
2023-04-01T00:24:06.841Z,93.62
2023-04-01T00:25:06.936Z,93.64
2023-04-01T00:26:07.114Z,93.77
2023-04-01T00:27:07.183Z,93.58
2023-04-01T00:28:07.260Z,93.63
2023-04-01T00:29:07.426Z,93.68
2023-04-01T00:30:07.489Z,93.59
2023-04-01T00:31:07.610Z,93.54
2023-04-01T00:32:07.818Z,93.42
2023-04-01T00:33:07.858Z,93.51
2023-04-01T00:34:07.951Z,93.47
2023-04-01T00:35:08.043Z,93.54
2023-04-01T00:36:08.180Z,93.58
2023-04-01T00:37:08.299Z,93.46
2023-04-01T00:38:08.390Z,93.52
2023-04-01T00:39:08.516Z,93.31
2023-04-01T00:40:08.673Z,93.37
2023-04-01T00:41:08.743Z,93.15
2023-04-01T00:42:08.844Z,93.28
2023-04-01T00:43:09.018Z,93.24
2023-04-01T00:44:09.069Z,93.21
2023-04-01T00:45:09.216Z,93.10
2023-04-01T00:46:09.282Z,93.13
2023-04-01T00:47:09.595Z,93.13
2023-04-01T00:48:09.640Z,93.18
2023-04-01T00:49:09.655Z,92.98
2023-04-01T00:50:09.793Z,93.14
2023-04-01T00:51:09.881Z,93.15
2023-04-01T00:52:09.995Z,92.90
2023-04-01T00:53:10.162Z,92.99
2023-04-01T00:54:10.253Z,93.15
2023-04-01T00:55:10.364Z,93.04
2023-04-01T00:56:10.439Z,93.06
2023-04-01T00:57:10.564Z,93.09
2023-04-01T00:58:10.659Z,92.93
2023-04-01T00:59:10.813Z,92.89
2023-04-01T01:00:10.914Z,92.96
2023-04-01T01:01:11.101Z,92.90
2023-04-01T01:02:11.217Z,93.02
2023-04-01T01:03:11.366Z,93.05
2023-04-01T01:04:11.441Z,93.20
2023-04-01T01:05:11.505Z,93.07
2023-04-01T01:06:11.611Z,93.08
2023-04-01T01:07:11.730Z,93.10
2023-04-01T01:08:11.838Z,93.16
2023-04-01T01:09:11.960Z,93.10
2023-04-01T01:10:12.128Z,93.10
2023-04-01T01:11:12.609Z,93.16
2023-04-01T01:12:12.302Z,93.13
2023-04-01T01:13:12.409Z,93.06
2023-04-01T01:14:12.545Z,93.05
2023-04-01T01:15:12.663Z,92.90
2023-04-01T01:16:12.810Z,92.96
2023-04-01T01:17:12.896Z,92.96
2023-04-01T01:18:13.030Z,92.99
2023-04-01T01:19:13.116Z,93.04
2023-04-01T01:20:25.402Z,93.07
2023-04-01T01:21:14.370Z,93.18
2023-04-01T01:22:13.468Z,93.24
2023-04-01T01:23:13.707Z,93.11
2023-04-01T01:24:13.718Z,92.89
2023-04-01T01:25:13.878Z,92.87
2023-04-01T01:26:13.941Z,92.88
2023-04-01T01:27:14.068Z,92.88
2023-04-01T01:28:14.192Z,93.09
2023-04-01T01:29:14.328Z,93.16
2023-04-01T01:30:14.487Z,93.18
2023-04-01T01:31:14.570Z,93.15
2023-04-01T01:32:14.693Z,93.17
2023-04-01T01:33:14.848Z,92.92
2023-04-01T01:34:14.864Z,93.04
2023-04-01T01:35:14.978Z,92.83
2023-04-01T01:36:15.168Z,92.81
2023-04-01T01:37:15.240Z,93.03
2023-04-01T01:38:15.356Z,93.29
2023-04-01T01:39:15.470Z,93.20
2023-04-01T01:40:15.669Z,93.06
2023-04-01T01:41:15.692Z,93.06
2023-04-01T01:42:15.795Z,93.00
2023-04-01T01:43:17.898Z,92.87
2023-04-01T01:44:16.038Z,93.06
2023-04-01T01:45:16.159Z,93.09
2023-04-01T01:46:16.253Z,93.03
2023-04-01T01:47:16.352Z,92.83
2023-04-01T01:48:16.529Z,92.74
2023-04-01T01:49:16.589Z,92.78
2023-04-01T01:50:16.760Z,92.74
2023-04-01T01:51:16.838Z,92.67
2023-04-01T01:52:16.944Z,92.66
2023-04-01T01:53:17.088Z,92.77
2023-04-01T01:54:17.182Z,92.48
2023-04-01T01:55:17.311Z,92.36
2023-04-01T01:56:17.374Z,92.57
2023-04-01T01:57:17.507Z,92.65
2023-04-01T01:58:17.650Z,92.50
2023-04-01T01:59:17.702Z,92.51
2023-04-01T02:00:17.845Z,92.60
2023-04-01T02:01:17.972Z,92.55
2023-04-01T02:02:18.038Z,92.41
2023-04-01T02:03:19.825Z,92.40
2023-04-01T02:04:22.056Z,92.37
2023-04-01T02:05:18.430Z,92.58
2023-04-01T02:06:18.503Z,92.65
2023-04-01T02:07:18.603Z,92.47
2023-04-01T02:08:18.748Z,92.55
2023-04-01T02:09:18.836Z,92.65
2023-04-01T02:10:18.964Z,92.72
2023-04-01T02:11:19.066Z,92.44
2023-04-01T02:12:19.217Z,92.56
2023-04-01T02:13:19.312Z,92.50
2023-04-01T02:14:19.435Z,92.45
2023-04-01T02:15:19.589Z,92.47
2023-04-01T02:16:19.678Z,92.48
2023-04-01T02:17:19.723Z,92.61
2023-04-01T02:18:19.838Z,92.56
2023-04-01T02:19:19.979Z,92.79
2023-04-01T02:20:20.071Z,92.89
2023-04-01T02:21:20.206Z,92.82
2023-04-01T02:22:20.314Z,92.86
2023-04-01T02:23:20.451Z,92.87
2023-04-01T02:24:20.578Z,92.95
2023-04-01T02:25:20.646Z,93.07
2023-04-01T02:26:20.800Z,93.10
2023-04-01T02:27:20.917Z,93.12
2023-04-01T02:28:21.028Z,93.11
2023-04-01T02:29:21.131Z,92.87
2023-04-01T02:30:21.239Z,92.83
2023-04-01T02:31:21.377Z,92.91
2023-04-01T02:32:21.516Z,93.01
2023-04-01T02:33:21.579Z,93.02
2023-04-01T02:34:21.702Z,92.97
2023-04-01T02:35:21.812Z,93.00
2023-04-01T02:36:21.978Z,93.01
2023-04-01T02:37:22.027Z,93.08
2023-04-01T02:38:22.202Z,93.03
2023-04-01T02:39:22.279Z,93.31
2023-04-01T02:40:22.373Z,93.42
2023-04-01T02:41:22.559Z,93.34
2023-04-01T02:42:22.595Z,93.17
2023-04-01T02:43:25.839Z,93.24
2023-04-01T02:44:22.968Z,93.08
2023-04-01T02:45:22.977Z,93.27
2023-04-01T02:46:23.056Z,93.31
2023-04-01T02:47:23.227Z,93.45
2023-04-01T02:48:23.279Z,93.37
2023-04-01T02:49:23.390Z,93.46
2023-04-01T02:50:23.553Z,93.54
2023-04-01T02:51:23.623Z,93.46
2023-04-01T02:52:23.726Z,93.52
2023-04-01T02:53:23.888Z,93.60
2023-04-01T02:54:23.983Z,93.64
2023-04-01T02:55:24.153Z,93.62
2023-04-01T02:56:24.211Z,93.84
2023-04-01T02:57:24.383Z,93.78
2023-04-01T02:58:24.448Z,93.88
2023-04-01T02:59:24.640Z,93.79
2023-04-01T03:00:24.658Z,93.78
2023-04-01T03:01:24.836Z,93.92
2023-04-01T03:02:24.977Z,93.98
2023-04-01T03:03:25.097Z,93.95
2023-04-01T03:04:25.238Z,93.93
2023-04-01T03:05:25.293Z,93.79
2023-04-01T03:06:25.413Z,94.00
2023-04-01T03:07:25.480Z,94.07
2023-04-01T03:08:25.597Z,94.16
2023-04-01T03:09:25.759Z,94.14
2023-04-01T03:10:25.846Z,94.01
2023-04-01T03:11:25.951Z,94.08
2023-04-01T03:12:26.028Z,94.08
2023-04-01T03:13:26.180Z,94.03
2023-04-01T03:14:26.286Z,94.17
2023-04-01T03:15:26.369Z,94.28
2023-04-01T03:16:26.567Z,94.26
2023-04-01T03:17:26.594Z,94.28
2023-04-01T03:18:26.750Z,94.32
2023-04-01T03:19:26.824Z,94.24
2023-04-01T03:20:26.943Z,94.32
2023-04-01T03:21:27.040Z,94.33
2023-04-01T03:22:27.177Z,94.25
2023-04-01T03:23:27.297Z,94.19
2023-04-01T03:24:27.402Z,94.25
2023-04-01T03:25:27.492Z,94.23
2023-04-01T03:26:27.608Z,94.26
2023-04-01T03:27:27.737Z,94.26
2023-04-01T03:28:27.863Z,94.18
2023-04-01T03:29:27.942Z,94.24
2023-04-01T03:30:28.126Z,94.30
2023-04-01T03:31:28.272Z,94.26
2023-04-01T03:32:28.404Z,94.16
2023-04-01T03:33:28.494Z,94.20
2023-04-01T03:34:28.555Z,94.31
2023-04-01T03:35:28.730Z,94.31
2023-04-01T03:36:28.818Z,94.30
2023-04-01T03:37:28.889Z,94.18
2023-04-01T03:38:29.018Z,94.15
2023-04-01T03:39:29.140Z,94.12
2023-04-01T03:40:29.353Z,94.15
2023-04-01T03:41:29.362Z,94.21
2023-04-01T03:42:29.559Z,94.19
2023-04-01T03:43:29.611Z,94.14
2023-04-01T03:44:29.706Z,94.18
2023-04-01T03:45:29.898Z,94.29
2023-04-01T03:46:29.953Z,94.28
2023-04-01T03:47:30.093Z,94.33
2023-04-01T03:48:30.156Z,94.35
2023-04-01T03:49:30.345Z,94.34
2023-04-01T03:50:31.195Z,94.36
2023-04-01T03:51:30.509Z,94.36
2023-04-01T03:52:30.562Z,94.34
2023-04-01T03:53:30.708Z,94.41
2023-04-01T03:54:30.866Z,94.38
2023-04-01T03:55:31.292Z,94.38
2023-04-01T03:56:31.063Z,94.34
2023-04-01T03:57:31.243Z,94.34
2023-04-01T03:58:31.270Z,94.34
2023-04-01T03:59:31.426Z,94.32
2023-04-01T04:00:31.517Z,94.28
2023-04-01T04:01:31.630Z,94.37
2023-04-01T04:02:31.784Z,94.42
2023-04-01T04:03:31.971Z,94.39
2023-04-01T04:04:31.990Z,94.41
2023-04-01T04:05:32.393Z,94.44
2023-04-01T04:06:32.193Z,94.42
2023-04-01T04:07:32.319Z,94.46
2023-04-01T04:08:32.416Z,94.35
2023-04-01T04:09:32.552Z,94.41
2023-04-01T04:10:32.726Z,94.43
2023-04-01T04:11:32.792Z,94.45
2023-04-01T04:12:32.982Z,94.45
2023-04-01T04:13:33.024Z,94.39
2023-04-01T04:14:33.129Z,94.50
2023-04-01T04:15:33.479Z,94.39
2023-04-01T04:16:33.425Z,94.49
2023-04-01T04:17:33.488Z,94.48
2023-04-01T04:18:33.582Z,94.60
2023-04-01T04:19:33.710Z,94.50
2023-04-01T04:20:33.866Z,94.53
2023-04-01T04:21:33.962Z,94.37
2023-04-01T04:22:34.054Z,94.45
2023-04-01T04:23:34.144Z,94.51
2023-04-01T04:24:34.275Z,94.58
2023-04-01T04:25:34.667Z,94.54
2023-04-01T04:26:34.485Z,94.65
2023-04-01T04:27:34.584Z,94.68
2023-04-01T04:28:34.736Z,94.62
2023-04-01T04:29:34.831Z,94.58
2023-04-01T04:30:34.945Z,94.58
2023-04-01T04:31:35.130Z,94.57
2023-04-01T04:32:35.169Z,94.63
2023-04-01T04:33:35.334Z,94.72
2023-04-01T04:34:35.380Z,94.73
2023-04-01T04:35:35.747Z,94.70
2023-04-01T04:36:35.642Z,94.76
2023-04-01T04:37:35.722Z,94.69
2023-04-01T04:38:35.908Z,94.72
2023-04-01T04:39:35.943Z,94.75
2023-04-01T04:40:36.051Z,94.88
2023-04-01T04:41:37.596Z,94.92
2023-04-01T04:42:36.299Z,94.90
2023-04-01T04:43:36.486Z,94.93
2023-04-01T04:44:36.500Z,94.95
2023-04-01T04:45:36.621Z,95.02
2023-04-01T04:46:36.763Z,95.02
2023-04-01T04:47:36.883Z,95.08
2023-04-01T04:48:36.977Z,95.14
2023-04-01T04:49:37.113Z,95.20
2023-04-01T04:50:37.202Z,95.20
2023-04-01T04:51:37.317Z,95.21
2023-04-01T04:52:37.438Z,95.22
2023-04-01T04:53:37.620Z,95.18
2023-04-01T04:54:37.655Z,95.21
2023-04-01T04:55:37.753Z,95.21
2023-04-01T04:56:37.861Z,95.13
2023-04-01T04:57:37.974Z,95.15
2023-04-01T04:58:38.141Z,95.19
2023-04-01T04:59:38.246Z,95.14
2023-04-01T05:00:38.318Z,95.22
2023-04-01T05:01:38.437Z,95.22
2023-04-01T05:02:38.645Z,95.12
2023-04-01T05:03:38.734Z,95.10
2023-04-01T05:04:38.755Z,94.97
2023-04-01T05:05:38.874Z,95.06
2023-04-01T05:06:38.976Z,95.09
2023-04-01T05:07:39.083Z,94.96
2023-04-01T05:08:39.206Z,94.92
2023-04-01T05:09:39.348Z,94.90
2023-04-01T05:10:39.460Z,94.89
2023-04-01T05:11:39.576Z,94.86
2023-04-01T05:12:39.751Z,94.78
2023-04-01T05:13:39.834Z,94.73
2023-04-01T05:14:39.978Z,94.79
2023-04-01T05:15:40.047Z,94.83
2023-04-01T05:16:40.349Z,94.87
2023-04-01T05:17:40.330Z,94.82
2023-04-01T05:18:40.388Z,94.83
2023-04-01T05:19:40.551Z,94.83
2023-04-01T05:20:40.625Z,94.78
2023-04-01T05:21:40.733Z,94.67
2023-04-01T05:22:40.873Z,94.66
2023-04-01T05:23:40.999Z,94.67
2023-04-01T05:24:41.133Z,94.66
2023-04-01T05:25:41.370Z,94.67
2023-04-01T05:26:41.351Z,94.77
2023-04-01T05:27:41.473Z,94.77
2023-04-01T05:28:41.576Z,94.78
2023-04-01T05:29:41.779Z,94.85
2023-04-01T05:30:41.862Z,94.84
2023-04-01T05:31:41.942Z,94.86
2023-04-01T05:32:42.099Z,94.91
2023-04-01T05:33:42.140Z,94.82
2023-04-01T05:34:42.328Z,94.86
2023-04-01T05:35:42.452Z,94.95
2023-04-01T05:36:42.481Z,94.99
2023-04-01T05:37:42.588Z,94.93
2023-04-01T05:38:42.744Z,94.85
2023-04-01T05:39:42.814Z,94.83
2023-04-01T05:40:42.937Z,94.89
2023-04-01T05:41:43.030Z,94.97
2023-04-01T05:42:43.168Z,95.02
2023-04-01T05:43:43.336Z,95.13
2023-04-01T05:44:43.376Z,95.10
2023-04-01T05:45:43.490Z,95.15
2023-04-01T05:46:43.592Z,95.19
2023-04-01T05:47:43.745Z,95.03
2023-04-01T05:48:43.830Z,95.03
2023-04-01T05:49:43.927Z,95.09
2023-04-01T05:50:44.075Z,95.02
2023-04-01T05:51:44.182Z,95.08
2023-04-01T05:52:44.285Z,95.15
2023-04-01T05:53:44.394Z,95.12
2023-04-01T05:54:44.530Z,95.07
2023-04-01T05:55:44.689Z,95.18
2023-04-01T05:56:46.404Z,95.22
2023-04-01T05:57:44.869Z,95.25
2023-04-01T05:58:45.020Z,95.18
2023-04-01T05:59:45.123Z,95.27
2023-04-01T06:00:46.558Z,95.33
2023-04-01T06:01:45.364Z,95.11
2023-04-01T06:02:45.575Z,95.15
2023-04-01T06:03:45.746Z,95.07
2023-04-01T06:04:45.747Z,95.12
2023-04-01T06:05:45.837Z,95.24
2023-04-01T06:06:45.927Z,95.19
2023-04-01T06:07:46.030Z,94.83
2023-04-01T06:08:46.144Z,94.96
2023-04-01T06:09:46.274Z,95.09
2023-04-01T06:10:46.389Z,95.05
2023-04-01T06:11:46.581Z,95.14
2023-04-01T06:12:46.651Z,95.15
2023-04-01T06:13:46.754Z,95.12
2023-04-01T06:14:46.891Z,95.08
2023-04-01T06:15:46.993Z,95.14
2023-04-01T06:16:47.105Z,94.99
2023-04-01T06:17:47.254Z,94.98
2023-04-01T06:18:47.342Z,94.99
2023-04-01T06:19:47.433Z,94.95
2023-04-01T06:20:47.633Z,95.04
2023-04-01T06:21:47.699Z,95.16
2023-04-01T06:22:47.791Z,95.08
2023-04-01T06:23:47.908Z,94.95
2023-04-01T06:24:48.021Z,95.08
2023-04-01T06:25:48.120Z,95.17
2023-04-01T06:26:48.286Z,95.15
2023-04-01T06:27:48.380Z,95.09
2023-04-01T06:28:48.473Z,95.03
2023-04-01T06:29:48.551Z,95.07
2023-04-01T06:30:48.679Z,94.92
2023-04-01T06:31:48.828Z,94.87
2023-04-01T06:32:48.971Z,94.98
2023-04-01T06:33:49.007Z,95.04
2023-04-01T06:34:49.107Z,95.09
2023-04-01T06:35:49.288Z,95.03
2023-04-01T06:36:49.422Z,94.89
2023-04-01T06:37:49.457Z,94.90
2023-04-01T06:38:49.566Z,94.90
2023-04-01T06:39:49.659Z,95.01
2023-04-01T06:40:49.796Z,94.95
2023-04-01T06:41:49.919Z,95.02
2023-04-01T06:42:50.014Z,95.01
2023-04-01T06:43:50.107Z,95.03
2023-04-01T06:44:50.300Z,94.98
2023-04-01T06:45:50.372Z,95.10
2023-04-01T06:46:50.458Z,94.89
2023-04-01T06:47:50.630Z,94.83
2023-04-01T06:48:50.697Z,94.96
2023-04-01T06:49:50.805Z,95.03
2023-04-01T06:50:50.919Z,95.00
2023-04-01T06:51:51.006Z,95.12
2023-04-01T06:52:51.212Z,95.17
2023-04-01T06:53:51.294Z,95.02
2023-04-01T06:54:51.329Z,95.11
2023-04-01T06:55:51.468Z,95.17
2023-04-01T06:56:51.669Z,95.23
2023-04-01T06:57:51.718Z,95.29
2023-04-01T06:58:51.869Z,95.33
2023-04-01T06:59:51.976Z,95.32
2023-04-01T07:00:52.127Z,95.31
2023-04-01T07:01:52.201Z,95.20
2023-04-01T07:02:52.335Z,95.32
2023-04-01T07:03:52.429Z,95.40
2023-04-01T07:04:52.587Z,95.33
2023-04-01T07:05:52.635Z,95.32
2023-04-01T07:06:52.782Z,95.45
2023-04-01T07:07:52.952Z,95.41
2023-04-01T07:08:53.004Z,95.30
2023-04-01T07:09:53.155Z,95.20
2023-04-01T07:10:53.223Z,95.19
2023-04-01T07:11:53.401Z,95.27
2023-04-01T07:12:53.447Z,95.07
2023-04-01T07:13:53.566Z,95.18
2023-04-01T07:14:53.877Z,95.21
2023-04-01T07:15:54.509Z,95.16
2023-04-01T07:16:53.942Z,95.16
2023-04-01T07:17:54.113Z,95.23
2023-04-01T07:18:54.122Z,95.17
2023-04-01T07:19:54.255Z,94.97
2023-04-01T07:20:54.428Z,95.00
2023-04-01T07:21:54.471Z,94.93
2023-04-01T07:22:54.672Z,94.93
2023-04-01T07:23:54.709Z,94.88
2023-04-01T07:24:54.994Z,94.87
2023-04-01T07:25:54.976Z,95.01
2023-04-01T07:26:55.065Z,95.13
2023-04-01T07:27:55.197Z,95.06
2023-04-01T07:28:55.310Z,94.94
2023-04-01T07:29:55.366Z,95.00
2023-04-01T07:30:55.543Z,94.99
2023-04-01T07:31:55.594Z,94.90
2023-04-01T07:32:55.726Z,94.93
2023-04-01T07:33:55.809Z,95.01
2023-04-01T07:34:55.940Z,95.02
2023-04-01T07:35:56.075Z,95.09
2023-04-01T07:36:56.196Z,95.07
2023-04-01T07:37:56.282Z,94.97
2023-04-01T07:38:56.470Z,94.96
2023-04-01T07:39:56.527Z,95.09
2023-04-01T07:40:56.642Z,94.96
2023-04-01T07:41:56.773Z,95.07
2023-04-01T07:42:56.886Z,95.05
2023-04-01T07:43:57.032Z,95.05
2023-04-01T07:44:57.138Z,95.17
2023-04-01T07:45:57.234Z,95.04
2023-04-01T07:46:57.349Z,94.97
2023-04-01T07:47:57.621Z,95.13
2023-04-01T07:48:57.538Z,95.20
2023-04-01T07:49:57.673Z,95.10
2023-04-01T07:50:57.749Z,95.00
2023-04-01T07:51:57.872Z,95.11
2023-04-01T07:52:58.018Z,95.08
2023-04-01T07:53:58.152Z,95.18
2023-04-01T07:54:58.334Z,95.26
2023-04-01T07:55:58.416Z,95.09
2023-04-01T07:56:58.577Z,95.06
2023-04-01T07:57:58.629Z,95.06
2023-04-01T07:58:58.722Z,95.02
2023-04-01T07:59:58.856Z,95.01
2023-04-01T08:00:58.965Z,95.02
2023-04-01T08:01:59.105Z,95.16
2023-04-01T08:02:59.385Z,95.10
2023-04-01T08:03:59.514Z,94.94
2023-04-01T08:04:59.535Z,94.91
2023-04-01T08:05:59.573Z,95.05
2023-04-01T08:06:59.738Z,94.92
2023-04-01T08:07:59.866Z,94.98
2023-04-01T08:08:59.889Z,94.97
2023-04-01T08:10:00.000Z,94.97
2023-04-01T08:11:00.122Z,94.92
2023-04-01T08:12:00.271Z,95.04
2023-04-01T08:13:00.456Z,94.97
2023-04-01T08:14:00.600Z,94.90
2023-04-01T08:15:00.593Z,94.92
2023-04-01T08:16:00.713Z,95.17
2023-04-01T08:17:00.818Z,95.04
2023-04-01T08:18:00.974Z,94.95
2023-04-01T08:19:01.098Z,94.96
2023-04-01T08:20:01.153Z,94.95
2023-04-01T08:21:01.272Z,94.94
2023-04-01T08:22:01.437Z,94.96
2023-04-01T08:23:01.500Z,94.89
2023-04-01T08:24:01.635Z,94.69
2023-04-01T08:25:01.738Z,94.62
2023-04-01T08:26:01.850Z,94.77
2023-04-01T08:27:01.956Z,94.73
2023-04-01T08:28:02.102Z,94.72
2023-04-01T08:29:02.179Z,94.70
2023-04-01T08:30:02.283Z,94.63
2023-04-01T08:31:02.374Z,94.60
2023-04-01T08:32:02.539Z,94.85
2023-04-01T08:33:02.656Z,94.80
2023-04-01T08:34:02.782Z,94.87
2023-04-01T08:35:02.817Z,94.69
2023-04-01T08:36:03.061Z,94.71
2023-04-01T08:37:03.089Z,94.77
2023-04-01T08:38:03.210Z,94.88
2023-04-01T08:39:03.451Z,94.60
2023-04-01T08:40:03.415Z,94.46
2023-04-01T08:41:03.546Z,94.61
2023-04-01T08:42:03.617Z,94.77
2023-04-01T08:43:03.742Z,95.03
2023-04-01T08:44:03.917Z,94.80
2023-04-01T08:45:03.957Z,94.64
2023-04-01T08:46:04.133Z,94.67
2023-04-01T08:47:04.254Z,94.68
2023-04-01T08:48:04.668Z,94.58
2023-04-01T08:49:04.627Z,94.56
2023-04-01T08:50:04.612Z,94.64
2023-04-01T08:51:06.029Z,94.52
2023-04-01T08:52:05.064Z,94.56
2023-04-01T08:53:05.156Z,94.64
2023-04-01T08:54:05.416Z,94.78
2023-04-01T08:55:05.494Z,94.65
2023-04-01T08:56:05.237Z,94.61
2023-04-01T08:57:05.401Z,94.64
2023-04-01T08:58:05.482Z,94.74
2023-04-01T08:59:05.703Z,94.96
2023-04-01T09:00:05.783Z,95.03
2023-04-01T09:01:05.866Z,95.02
2023-04-01T09:02:06.006Z,95.06
2023-04-01T09:03:06.182Z,94.86
2023-04-01T09:04:06.211Z,95.01
2023-04-01T09:05:06.283Z,95.08
2023-04-01T09:06:06.478Z,94.96
2023-04-01T09:07:06.646Z,94.88
2023-04-01T09:08:06.625Z,95.03
2023-04-01T09:09:06.724Z,95.00
2023-04-01T09:10:06.848Z,94.94
2023-04-01T09:11:07.096Z,94.90
2023-04-01T09:12:07.135Z,94.58
2023-04-01T09:13:07.215Z,94.67
2023-04-01T09:14:07.335Z,94.72
2023-04-01T09:15:07.472Z,94.80
2023-04-01T09:16:07.604Z,94.82
2023-04-01T09:17:07.767Z,94.61
2023-04-01T09:18:07.913Z,94.80
2023-04-01T09:19:09.519Z,95.12
2023-04-01T09:20:08.087Z,94.82
2023-04-01T09:21:08.195Z,94.96
2023-04-01T09:22:08.347Z,94.96
2023-04-01T09:23:08.363Z,94.92
2023-04-01T09:24:08.465Z,94.74
2023-04-01T09:25:08.614Z,94.77
2023-04-01T09:26:08.686Z,94.86
2023-04-01T09:27:08.834Z,94.71
2023-04-01T09:28:08.882Z,94.92
2023-04-01T09:29:08.995Z,94.88
2023-04-01T09:30:09.173Z,94.69
2023-04-01T09:31:09.278Z,94.77
2023-04-01T09:32:09.334Z,94.71
2023-04-01T09:33:09.501Z,95.03
2023-04-01T09:34:09.565Z,94.75
2023-04-01T09:35:09.716Z,94.78
2023-04-01T09:36:09.936Z,94.82
2023-04-01T09:37:09.896Z,95.25
2023-04-01T09:38:10.044Z,95.38
2023-04-01T09:39:10.124Z,95.25
2023-04-01T09:40:10.264Z,95.18
2023-04-01T09:41:10.369Z,94.92
2023-04-01T09:42:10.485Z,95.17
2023-04-01T09:43:10.651Z,94.79
2023-04-01T09:44:10.720Z,94.77
2023-04-01T09:45:10.838Z,94.70
2023-04-01T09:46:10.990Z,94.94
2023-04-01T09:47:11.068Z,94.88
2023-04-01T09:48:11.224Z,95.08
2023-04-01T09:49:11.376Z,95.11
2023-04-01T09:50:11.476Z,94.92
2023-04-01T09:51:11.640Z,95.16
2023-04-01T09:52:11.780Z,95.23
2023-04-01T09:53:11.916Z,94.92
2023-04-01T09:54:11.966Z,94.91
2023-04-01T09:55:12.071Z,94.90
2023-04-01T09:56:12.223Z,94.75
2023-04-01T09:57:12.296Z,94.88
2023-04-01T09:58:12.395Z,94.96
2023-04-01T09:59:12.575Z,94.96
2023-04-01T10:00:12.625Z,95.18
2023-04-01T10:01:12.771Z,95.00
2023-04-01T10:02:12.900Z,94.93
2023-04-01T10:03:13.033Z,95.01
2023-04-01T10:04:13.170Z,95.02
2023-04-01T10:05:13.245Z,94.55
2023-04-01T10:06:13.445Z,94.91
2023-04-01T10:07:13.440Z,94.87
2023-04-01T10:08:13.558Z,94.57
2023-04-01T10:09:13.714Z,94.52
2023-04-01T10:10:13.820Z,94.72
2023-04-01T10:11:13.906Z,94.81
2023-04-01T10:12:14.060Z,94.93
2023-04-01T10:13:14.141Z,94.82
2023-04-01T10:14:14.304Z,94.47
2023-04-01T10:15:14.409Z,94.61
2023-04-01T10:16:14.509Z,94.54
2023-04-01T10:17:14.576Z,94.77
2023-04-01T10:18:14.716Z,95.02
2023-04-01T10:19:14.933Z,95.03
2023-04-01T10:20:15.048Z,94.31
2023-04-01T10:21:15.050Z,94.73
2023-04-01T10:22:15.223Z,94.91
2023-04-01T10:23:15.340Z,94.90
2023-04-01T10:24:15.439Z,94.92
2023-04-01T10:25:15.579Z,94.90
2023-04-01T10:26:15.685Z,94.88
2023-04-01T10:27:15.775Z,94.87
2023-04-01T10:28:15.940Z,94.80
2023-04-01T10:29:16.060Z,94.76
2023-04-01T10:30:16.160Z,94.54
2023-04-01T10:31:16.245Z,94.83
2023-04-01T10:32:16.413Z,94.68
2023-04-01T10:33:16.593Z,95.00
2023-04-01T10:34:16.605Z,95.01
2023-04-01T10:35:16.712Z,94.91
2023-04-01T10:36:16.937Z,94.63
2023-04-01T10:37:16.927Z,94.84
2023-04-01T10:38:17.036Z,94.80
2023-04-01T10:39:17.146Z,94.47
2023-04-01T10:40:17.379Z,94.49
2023-04-01T10:41:17.429Z,94.53
2023-04-01T10:42:17.492Z,94.83
2023-04-01T10:43:17.598Z,94.96
2023-04-01T10:44:17.717Z,94.83
2023-04-01T10:45:17.835Z,94.83
2023-04-01T10:46:18.020Z,94.99
2023-04-01T10:47:18.129Z,94.92
2023-04-01T10:48:18.210Z,94.77
2023-04-01T10:49:18.341Z,94.60
2023-04-01T10:50:18.410Z,94.53
2023-04-01T10:51:18.516Z,94.72
2023-04-01T10:52:18.654Z,94.30
2023-04-01T10:53:18.825Z,94.40
2023-04-01T10:54:18.872Z,94.61
2023-04-01T10:55:18.949Z,94.74
2023-04-01T10:56:19.092Z,94.49
2023-04-01T10:57:19.345Z,94.86
2023-04-01T10:58:19.390Z,94.66
2023-04-01T10:59:19.466Z,94.63
2023-04-01T11:00:19.631Z,94.88
2023-04-01T11:01:19.743Z,95.00
2023-04-01T11:02:19.957Z,95.20
2023-04-01T11:03:20.073Z,95.21
2023-04-01T11:04:20.095Z,94.94
2023-04-01T11:05:21.039Z,94.87
2023-04-01T11:06:20.323Z,94.82
2023-04-01T11:07:20.424Z,95.17
2023-04-01T11:08:20.591Z,95.22
2023-04-01T11:09:20.660Z,95.00
2023-04-01T11:10:20.793Z,95.14
2023-04-01T11:11:20.883Z,95.01
2023-04-01T11:12:20.974Z,94.95
2023-04-01T11:13:21.146Z,95.06
2023-04-01T11:14:21.285Z,95.21
2023-04-01T11:15:21.325Z,95.11
2023-04-01T11:16:21.623Z,95.25
2023-04-01T11:17:21.605Z,95.60
2023-04-01T11:18:21.759Z,95.86
2023-04-01T11:19:21.778Z,95.99
2023-04-01T11:20:21.992Z,95.95
2023-04-01T11:21:22.010Z,95.81
2023-04-01T11:22:22.132Z,96.05
2023-04-01T11:23:22.274Z,96.08
2023-04-01T11:24:22.373Z,95.99
2023-04-01T11:25:22.489Z,95.87
2023-04-01T11:26:22.979Z,96.00
2023-04-01T11:27:22.833Z,96.03
2023-04-01T11:28:23.160Z,96.07
2023-04-01T11:29:22.938Z,95.99
2023-04-01T11:30:23.089Z,95.89
2023-04-01T11:31:23.226Z,96.01
2023-04-01T11:32:23.285Z,96.14
2023-04-01T11:33:23.444Z,96.13
2023-04-01T11:34:23.509Z,95.84
2023-04-01T11:35:23.630Z,95.93
2023-04-01T11:36:23.824Z,96.11
2023-04-01T11:37:23.911Z,96.09
2023-04-01T11:38:24.078Z,96.12
2023-04-01T11:39:24.122Z,95.83
2023-04-01T11:40:24.157Z,95.85
2023-04-01T11:41:24.385Z,96.16
2023-04-01T11:42:24.385Z,96.17
2023-04-01T11:43:33.140Z,95.98
2023-04-01T11:44:25.645Z,95.97
2023-04-01T11:45:24.753Z,95.90
2023-04-01T11:46:24.966Z,95.79
2023-04-01T11:47:25.013Z,95.98
2023-04-01T11:48:25.110Z,96.13
2023-04-01T11:49:25.195Z,96.34
2023-04-01T11:50:25.329Z,96.27
2023-04-01T11:51:25.507Z,95.94
2023-04-01T11:52:25.538Z,95.95
2023-04-01T11:53:25.664Z,95.72
2023-04-01T11:54:25.767Z,95.81
2023-04-01T11:55:25.943Z,95.99
2023-04-01T11:56:26.045Z,95.92
2023-04-01T11:57:26.169Z,95.66
2023-04-01T11:58:26.302Z,95.83
2023-04-01T11:59:26.357Z,95.86
2023-04-01T12:00:26.506Z,95.72
2023-04-01T12:01:26.583Z,95.69
2023-04-01T12:02:26.716Z,95.80
2023-04-01T12:03:27.147Z,95.83
2023-04-01T12:04:27.085Z,95.81
2023-04-01T12:05:27.069Z,95.74
2023-04-01T12:06:27.126Z,96.00
2023-04-01T12:07:27.392Z,96.16
2023-04-01T12:08:27.354Z,96.09
2023-04-01T12:09:27.493Z,96.09
2023-04-01T12:10:27.575Z,96.10
2023-04-01T12:11:27.731Z,96.14
2023-04-01T12:12:27.845Z,95.84
2023-04-01T12:13:28.453Z,95.62
2023-04-01T12:14:28.040Z,95.65
2023-04-01T12:15:28.196Z,95.77
2023-04-01T12:16:28.291Z,95.69
2023-04-01T12:17:28.405Z,95.82
2023-04-01T12:18:28.560Z,95.75
2023-04-01T12:19:28.620Z,95.59
2023-04-01T12:20:28.781Z,95.61
2023-04-01T12:21:28.845Z,95.60
2023-04-01T12:22:28.963Z,95.58
2023-04-01T12:23:29.103Z,95.68
2023-04-01T12:24:29.176Z,95.86
2023-04-01T12:25:29.319Z,95.77
2023-04-01T12:26:29.377Z,95.79
2023-04-01T12:27:29.501Z,95.86
2023-04-01T12:28:29.712Z,95.97
2023-04-01T12:29:29.696Z,95.57
2023-04-01T12:30:29.843Z,95.50
2023-04-01T12:31:30.007Z,95.34
2023-04-01T12:32:30.213Z,95.48
2023-04-01T12:33:30.199Z,95.61
2023-04-01T12:34:30.300Z,95.31
2023-04-01T12:35:30.543Z,95.21
2023-04-01T12:36:30.520Z,95.26
2023-04-01T12:37:30.756Z,95.48
2023-04-01T12:38:30.815Z,95.25
2023-04-01T12:39:30.884Z,95.05
2023-04-01T12:40:31.273Z,95.27
2023-04-01T12:41:31.088Z,95.03
2023-04-01T12:42:31.231Z,95.46
2023-04-01T12:43:31.367Z,95.34
2023-04-01T12:44:31.645Z,95.25
2023-04-01T12:45:31.846Z,95.28
2023-04-01T12:46:31.716Z,94.74
2023-04-01T12:47:31.865Z,94.62
2023-04-01T12:48:31.923Z,94.82
2023-04-01T12:49:32.095Z,95.04
2023-04-01T12:50:32.145Z,94.82
2023-04-01T12:51:33.258Z,94.80
2023-04-01T12:52:32.405Z,94.69
2023-04-01T12:53:32.462Z,94.59